Time;durP1;ratioP1;P1;durP2;ratioP2;P2;SDS_P1;SDS_P2;PMS_P1;PMS_P2;Temp;Humidity;BMP_temperature;BMP_pressure;BME280_temperature;BME280_humidity;BME280_pressure;Samples;Min_cycle;Max_cycle;Signal;HPM_P1;HPM_P2
2023/11/14 00:00:41;;;;;;;21.48;5.03;;;13.80;75.00;;;;;;5060149;28;20032;-75
2023/11/14 00:03:08;;;;;;;20.40;5.28;;;13.80;75.00;;;;;;5065882;28;20036;-75
2023/11/14 00:05:36;;;;;;;22.33;5.75;;;13.80;75.00;;;;;;5065821;28;20044;-75
2023/11/14 00:08:02;;;;;;;19.63;3.85;;;13.80;75.00;;;;;;5047991;28;20064;-75
2023/11/14 00:10:29;;;;;;;17.88;4.57;;;13.80;75.00;;;;;;5065105;28;20136;-74
2023/11/14 00:12:56;;;;;;;16.20;4.38;;;13.80;75.10;;;;;;5062839;28;20043;-75
2023/11/14 00:15:23;;;;;;;21.30;5.57;;;13.80;75.10;;;;;;5062284;28;20028;-74
2023/11/14 00:17:49;;;;;;;18.10;4.75;;;13.80;75.10;;;;;;5062735;28;20044;-75
2023/11/14 00:20:15;;;;;;;20.90;5.25;;;13.70;75.00;;;;;;5063157;28;20043;-75
2023/11/14 00:22:41;;;;;;;20.58;4.85;;;13.80;75.10;;;;;;5062100;28;20035;-74
2023/11/14 00:25:08;;;;;;;18.80;4.53;;;13.70;75.00;;;;;;5061823;28;20423;-75
2023/11/14 00:27:34;;;;;;;18.73;5.18;;;13.70;75.00;;;;;;5059343;28;20349;-75
2023/11/14 00:30:00;;;;;;;18.38;4.35;;;13.80;75.20;;;;;;5061559;28;20024;-75
2023/11/14 00:32:26;;;;;;;22.10;5.13;;;13.70;75.00;;;;;;5060048;28;20024;-74
2023/11/14 00:34:52;;;;;;;26.05;6.53;;;13.70;75.10;;;;;;5057105;28;20037;-75
2023/11/14 00:37:19;;;;;;;21.33;5.80;;;13.70;75.10;;;;;;5055674;28;20524;-74
2023/11/14 00:39:45;;;;;;;19.55;6.40;;;13.70;75.10;;;;;;5060087;28;20125;-75
2023/11/14 00:42:12;;;;;;;21.92;5.82;;;13.70;75.20;;;;;;5054377;28;20021;-75
2023/11/14 00:44:38;;;;;;;18.75;5.07;;;13.60;75.00;;;;;;5059821;28;20182;-75
2023/11/14 00:47:05;;;;;;;18.70;5.93;;;13.60;75.00;;;;;;5065921;28;20024;-75
2023/11/14 00:49:30;;;;;;;23.30;5.72;;;13.60;75.10;;;;;;5060676;28;20052;-75
2023/11/14 00:51:57;;;;;;;19.33;4.65;;;13.60;75.10;;;;;;5069226;28;20472;-75
2023/11/14 00:54:24;;;;;;;25.63;5.82;;;13.60;75.10;;;;;;5059590;28;20041;-75
2023/11/14 00:56:50;;;;;;;16.85;5.38;;;13.60;75.10;;;;;;5057231;28;20025;-77
2023/11/14 00:59:16;;;;;;;18.30;5.13;;;13.60;75.10;;;;;;5062734;28;20039;-76
2023/11/14 01:01:42;;;;;;;20.02;5.47;;;13.50;75.00;;;;;;5040512;28;20166;-76
2023/11/14 01:04:12;;;;;;;19.50;4.05;;;13.60;75.20;;;;;;5062880;28;20033;-74
2023/11/14 01:06:41;;;;;;;22.55;5.18;;;13.60;75.20;;;;;;5043893;28;20138;-75
2023/11/14 01:09:09;;;;;;;17.33;3.97;;;13.60;75.20;;;;;;5061869;28;20609;-75
2023/11/14 01:11:36;;;;;;;22.92;5.47;;;13.60;75.30;;;;;;5040639;28;20040;-75
2023/11/14 01:14:02;;;;;;;25.50;6.05;;;13.60;75.30;;;;;;5060276;28;20081;-75
2023/11/14 01:16:28;;;;;;;21.10;5.82;;;13.50;75.10;;;;;;5092955;27;20490;-75
2023/11/14 01:18:54;;;;;;;23.88;6.13;;;13.60;75.40;;;;;;5064077;28;20060;-75
2023/11/14 01:21:20;;;;;;;24.58;4.93;;;13.60;75.40;;;;;;5059893;28;20029;-75
2023/11/14 01:23:46;;;;;;;21.35;5.38;;;13.60;75.40;;;;;;5060841;28;20184;-75
2023/11/14 01:26:14;;;;;;;17.17;4.65;;;13.60;75.40;;;;;;5059670;28;20483;-75
2023/11/14 01:28:42;;;;;;;22.15;6.38;;;13.60;75.50;;;;;;5062538;28;20025;-75
2023/11/14 01:31:20;;;;;;;23.85;5.20;;;13.50;75.30;;;;;;5066554;28;20547;-75
2023/11/14 01:33:46;;;;;;;21.02;4.72;;;13.50;75.40;;;;;;5057559;28;20408;-75
2023/11/14 01:36:12;;;;;;;20.35;5.03;;;13.50;75.40;;;;;;5060325;28;20029;-75
2023/11/14 01:38:38;;;;;;;18.83;4.90;;;13.60;75.60;;;;;;5061022;28;20044;-74
2023/11/14 01:41:04;;;;;;;20.58;5.47;;;13.50;75.50;;;;;;5056595;28;20336;-74
2023/11/14 01:43:40;;;;;;;27.88;5.30;;;13.50;75.50;;;;;;5061537;28;20046;-75
2023/11/14 01:46:07;;;;;;;16.50;5.63;;;13.50;75.50;;;;;;5071598;28;20477;-74
2023/11/14 01:48:33;;;;;;;20.38;4.57;;;13.50;75.50;;;;;;5064589;28;20260;-74
2023/11/14 01:51:00;;;;;;;19.08;4.38;;;13.50;75.60;;;;;;5059349;28;20393;-75
2023/11/14 01:53:26;;;;;;;12.90;4.97;;;13.50;75.70;;;;;;5060757;28;20094;-75
2023/11/14 01:55:54;;;;;;;17.00;5.60;;;13.50;75.70;;;;;;5067148;28;21020;-74
2023/11/14 01:58:20;;;;;;;22.38;4.35;;;13.60;75.90;;;;;;5066823;28;20089;-75
2023/11/14 02:00:47;;;;;;;21.25;4.93;;;13.60;75.90;;;;;;5062069;28;20502;-74
2023/11/14 02:03:14;;;;;;;21.08;4.57;;;13.50;75.70;;;;;;5063311;28;20036;-74
2023/11/14 02:05:40;;;;;;;14.48;3.85;;;13.50;75.70;;;;;;5048468;28;20411;-74
2023/11/14 02:08:07;;;;;;;19.15;5.40;;;13.50;75.80;;;;;;5065514;28;20506;-75
2023/11/14 02:10:33;;;;;;;17.55;5.03;;;13.50;75.70;;;;;;5056420;28;20328;-74
2023/11/14 02:12:59;;;;;;;12.90;3.75;;;13.50;75.70;;;;;;5057763;28;20550;-74
2023/11/14 02:15:25;;;;;;;19.42;4.45;;;13.50;75.70;;;;;;5063937;28;20040;-74
2023/11/14 02:17:52;;;;;;;19.08;4.28;;;13.50;75.80;;;;;;5065204;28;20119;-74
2023/11/14 02:20:18;;;;;;;18.15;4.25;;;13.50;75.80;;;;;;5066629;28;20047;-74
2023/11/14 02:22:44;;;;;;;16.30;5.13;;;13.50;75.70;;;;;;5066197;28;20499;-74
2023/11/14 02:25:11;;;;;;;18.98;4.72;;;13.50;75.70;;;;;;5065498;28;20050;-74
2023/11/14 02:27:39;;;;;;;21.00;5.53;;;13.50;75.70;;;;;;5061451;28;20021;-75
2023/11/14 02:30:06;;;;;;;16.92;4.03;;;13.50;75.70;;;;;;5046958;28;20043;-74
2023/11/14 02:32:35;;;;;;;14.98;3.78;;;13.40;75.50;;;;;;5062985;28;20511;-74
2023/11/14 02:35:02;;;;;;;21.30;4.95;;;13.40;75.50;;;;;;5061260;28;20111;-74
2023/11/14 02:37:30;;;;;;;20.38;4.85;;;13.40;75.50;;;;;;5060239;28;20065;-74
2023/11/14 02:39:56;;;;;;;23.08;7.47;;;13.40;75.50;;;;;;5076915;28;20398;-74
2023/11/14 02:42:23;;;;;;;19.00;4.43;;;13.40;75.60;;;;;;5053222;28;20055;-75
2023/11/14 02:44:49;;;;;;;23.30;5.57;;;13.40;76.10;;;;;;5066627;28;20414;-77
2023/11/14 02:47:17;;;;;;;18.52;4.00;;;13.30;75.40;;;;;;5061163;28;20052;-75
2023/11/14 02:49:57;;;;;;;21.92;4.32;;;13.30;75.40;;;;;;5065854;28;20044;-75
2023/11/14 02:52:23;;;;;;;25.65;4.65;;;13.30;75.40;;;;;;5058094;28;20154;-75
2023/11/14 02:54:50;;;;;;;19.73;4.50;;;13.30;75.40;;;;;;5063712;28;20500;-75
2023/11/14 02:57:18;;;;;;;22.50;4.30;;;13.30;75.50;;;;;;5063368;28;20212;-75
2023/11/14 02:59:47;;;;;;;21.63;5.18;;;13.20;75.30;;;;;;5062729;28;20020;-75
2023/11/14 03:02:13;;;;;;;22.63;5.28;;;13.20;75.30;;;;;;5061163;28;20043;-75
2023/11/14 03:04:39;;;;;;;19.13;4.93;;;13.20;75.30;;;;;;5065697;28;20036;-75
2023/11/14 03:07:05;;;;;;;20.25;5.20;;;13.20;75.40;;;;;;5064273;28;20028;-75
2023/11/14 03:09:31;;;;;;;18.95;5.47;;;13.20;75.40;;;;;;5062231;28;20145;-75
2023/11/14 03:11:57;;;;;;;18.20;4.45;;;13.20;75.40;;;;;;5045855;28;20578;-75
2023/11/14 03:14:23;;;;;;;18.27;4.13;;;13.20;75.50;;;;;;5066045;28;20491;-75
2023/11/14 03:16:49;;;;;;;25.50;5.03;;;13.10;75.30;;;;;;5063162;28;20040;-75
2023/11/14 03:19:18;;;;;;;18.23;5.93;;;13.10;75.30;;;;;;5067035;28;20120;-75
2023/11/14 03:21:46;;;;;;;22.23;5.50;;;13.10;75.40;;;;;;5062250;28;20060;-75
2023/11/14 03:24:12;;;;;;;19.85;5.53;;;13.10;75.40;;;;;;5064645;28;20450;-75
2023/11/14 03:26:39;;;;;;;22.58;5.25;;;13.10;75.40;;;;;;5061900;28;20132;-75
2023/11/14 03:29:05;;;;;;;20.35;5.05;;;13.10;75.50;;;;;;5060759;28;20020;-75
2023/11/14 03:31:31;;;;;;;19.02;4.07;;;13.10;75.50;;;;;;5063138;28;20082;-74
2023/11/14 03:33:57;;;;;;;25.42;4.68;;;13.10;75.50;;;;;;5063243;28;20431;-75
2023/11/14 03:36:24;;;;;;;20.63;5.05;;;13.10;75.50;;;;;;5060153;28;20161;-74
2023/11/14 03:38:50;;;;;;;17.38;4.55;;;13.00;75.30;;;;;;5062051;28;20043;-75
2023/11/14 03:41:16;;;;;;;25.40;6.18;;;13.00;75.40;;;;;;5060502;28;20052;-75
2023/11/14 03:43:42;;;;;;;24.92;5.65;;;13.00;75.90;;;;;;5058900;28;20054;-75
2023/11/14 03:46:08;;;;;;;21.33;4.78;;;13.00;75.40;;;;;;5063330;28;20028;-75
2023/11/14 03:48:34;;;;;;;17.98;4.13;;;13.00;75.50;;;;;;5056982;28;20055;-75
2023/11/14 03:51:02;;;;;;;19.27;5.25;;;13.00;75.50;;;;;;5064213;28;20431;-76
2023/11/14 03:53:28;;;;;;;19.65;5.53;;;13.00;75.50;;;;;;5060502;28;20028;-77
2023/11/14 03:55:54;;;;;;;17.65;4.07;;;13.00;75.50;;;;;;5062747;28;20043;-76
2023/11/14 03:58:20;;;;;;;16.23;3.63;;;13.00;75.60;;;;;;5061230;28;20071;-74
2023/11/14 04:00:48;;;;;;;20.90;4.13;;;13.00;75.60;;;;;;5048448;28;20571;-74
2023/11/14 04:03:14;;;;;;;29.63;5.20;;;12.90;75.40;;;;;;5065232;28;20111;-74
2023/11/14 04:05:40;;;;;;;20.30;5.53;;;12.90;75.40;;;;;;5061037;28;20267;-74
2023/11/14 04:08:06;;;;;;;20.63;4.93;;;12.90;75.40;;;;;;5064331;28;20086;-74
2023/11/14 04:10:32;;;;;;;19.73;4.97;;;12.90;75.40;;;;;;5061830;28;20388;-75
2023/11/14 04:12:58;;;;;;;23.67;5.13;;;12.90;75.40;;;;;;5045662;28;20021;-74
2023/11/14 04:15:25;;;;;;;21.60;4.88;;;12.90;75.50;;;;;;5063262;28;20290;-74
2023/11/14 04:17:51;;;;;;;21.45;5.18;;;12.90;75.50;;;;;;5062726;28;20116;-74
2023/11/14 04:20:17;;;;;;;16.38;3.85;;;12.80;75.30;;;;;;5065993;28;20119;-74
2023/11/14 04:22:43;;;;;;;17.70;4.30;;;12.90;75.50;;;;;;5063140;28;20170;-75
2023/11/14 04:25:09;;;;;;;23.42;6.05;;;12.90;75.60;;;;;;5063190;28;20048;-75
2023/11/14 04:27:35;;;;;;;21.55;4.70;;;12.90;76.10;;;;;;5058874;28;20104;-75
2023/11/14 04:30:01;;;;;;;20.50;6.38;;;12.90;75.60;;;;;;5056559;28;20123;-74
2023/11/14 04:32:27;;;;;;;22.95;6.30;;;12.90;75.70;;;;;;5063992;28;20024;-74
2023/11/14 04:34:52;;;;;;;18.90;5.80;;;12.90;75.70;;;;;;5062546;28;20028;-74
2023/11/14 04:37:18;;;;;;;21.27;5.20;;;12.90;75.70;;;;;;5064292;28;20032;-75
2023/11/14 04:39:45;;;;;;;22.88;6.13;;;12.80;75.50;;;;;;5063144;28;20416;-74
2023/11/14 04:42:11;;;;;;;18.50;4.88;;;12.90;75.70;;;;;;5060135;28;20094;-75
2023/11/14 04:44:37;;;;;;;14.95;4.88;;;12.80;75.60;;;;;;5062303;28;20040;-75
2023/11/14 04:47:05;;;;;;;20.92;5.18;;;12.80;75.60;;;;;;5064808;28;20029;-74
2023/11/14 04:49:31;;;;;;;17.52;5.22;;;12.80;75.60;;;;;;5067071;28;20127;-74
2023/11/14 04:51:57;;;;;;;17.95;3.85;;;12.80;75.60;;;;;;5063622;28;20107;-75
2023/11/14 04:54:23;;;;;;;17.67;4.38;;;12.80;75.70;;;;;;5065063;28;20037;-75
2023/11/14 04:56:49;;;;;;;19.33;4.97;;;12.70;75.50;;;;;;5067284;28;20032;-75
2023/11/14 04:59:15;;;;;;;20.42;4.07;;;12.80;75.70;;;;;;5065726;28;20032;-75
2023/11/14 05:01:41;;;;;;;19.35;4.57;;;12.80;75.70;;;;;;5064826;28;20025;-75
2023/11/14 05:04:07;;;;;;;21.45;4.70;;;12.70;75.60;;;;;;5068010;28;20596;-75
2023/11/14 05:06:33;;;;;;;17.52;5.30;;;12.70;75.60;;;;;;5068364;28;20032;-76
2023/11/14 05:08:59;;;;;;;20.90;4.88;;;12.70;75.60;;;;;;5066829;28;20205;-74
2023/11/14 05:11:26;;;;;;;18.33;4.85;;;12.70;75.70;;;;;;5062821;28;20071;-75
2023/11/14 05:13:52;;;;;;;14.65;4.90;;;12.70;75.70;;;;;;5064086;28;20048;-75
2023/11/14 05:16:19;;;;;;;21.83;4.20;;;12.60;75.50;;;;;;5066211;28;20077;-75
2023/11/14 05:18:45;;;;;;;14.25;3.88;;;12.70;75.70;;;;;;5067501;28;20059;-74
2023/11/14 05:21:10;;;;;;;20.33;4.22;;;12.60;75.50;;;;;;5070225;28;20032;-74
2023/11/14 05:23:36;;;;;;;22.52;4.57;;;12.60;75.50;;;;;;5066130;28;20035;-75
2023/11/14 05:26:02;;;;;;;23.33;4.60;;;12.60;75.50;;;;;;5068153;28;20127;-75
2023/11/14 05:28:29;;;;;;;22.17;5.15;;;12.60;75.60;;;;;;5064246;28;20101;-75
2023/11/14 05:30:58;;;;;;;24.20;5.55;;;12.60;75.60;;;;;;5066916;28;20072;-74
2023/11/14 05:33:24;;;;;;;18.80;4.38;;;12.60;75.60;;;;;;5062510;28;20026;-74
2023/11/14 05:35:51;;;;;;;18.17;4.43;;;12.60;75.60;;;;;;5065714;28;20028;-74
2023/11/14 05:38:18;;;;;;;20.08;4.07;;;12.60;75.60;;;;;;5066670;28;20029;-74
2023/11/14 05:40:44;;;;;;;20.80;5.50;;;12.50;76.00;;;;;;5065035;28;20095;-75
2023/11/14 05:43:10;;;;;;;20.45;4.65;;;12.60;75.70;;;;;;5060928;28;20052;-75
2023/11/14 05:45:36;;;;;;;15.45;4.30;;;12.50;75.50;;;;;;5065170;28;20040;-74
2023/11/14 05:48:04;;;;;;;17.77;4.50;;;12.60;75.80;;;;;;5059477;28;20043;-74
2023/11/14 05:50:34;;;;;;;25.15;4.55;;;12.60;75.80;;;;;;5064209;28;20119;-75
2023/11/14 05:53:00;;;;;;;16.70;4.38;;;12.60;75.80;;;;;;5059681;28;20029;-75
2023/11/14 05:55:28;;;;;;;21.55;4.63;;;12.50;75.70;;;;;;5060742;28;20107;-75
2023/11/14 05:57:54;;;;;;;18.10;4.20;;;12.50;75.70;;;;;;5058557;28;20179;-75
2023/11/14 06:00:20;;;;;;;21.05;5.38;;;12.50;75.70;;;;;;5060681;28;20099;-75
2023/11/14 06:02:47;;;;;;;20.65;5.40;;;12.50;75.70;;;;;;5061286;28;20487;-74
2023/11/14 06:05:13;;;;;;;18.48;4.07;;;12.60;76.00;;;;;;5059365;28;20076;-74
2023/11/14 06:07:39;;;;;;;23.63;5.40;;;12.60;75.90;;;;;;5044964;28;20120;-74
2023/11/14 06:10:07;;;;;;;19.08;6.03;;;12.60;75.90;;;;;;5059913;28;20036;-74
2023/11/14 06:12:33;;;;;;;21.17;6.30;;;12.60;76.00;;;;;;5059833;28;20190;-74
2023/11/14 06:14:59;;;;;;;24.20;4.85;;;12.60;76.00;;;;;;5063671;28;20032;-75
2023/11/14 06:17:26;;;;;;;20.85;4.47;;;12.60;76.00;;;;;;5060450;28;20021;-74
2023/11/14 06:19:52;;;;;;;24.38;6.25;;;12.60;76.00;;;;;;5057306;28;20037;-76
2023/11/14 06:22:18;;;;;;;19.42;4.15;;;12.60;76.00;;;;;;5058230;28;20510;-73
2023/11/14 06:24:44;;;;;;;25.40;6.03;;;12.60;76.00;;;;;;5062259;28;20534;-75
2023/11/14 06:27:10;;;;;;;14.20;3.63;;;12.60;76.00;;;;;;5063452;28;20032;-75
2023/11/14 06:29:35;;;;;;;19.67;4.80;;;12.60;76.00;;;;;;5057795;28;20581;-73
2023/11/14 06:32:02;;;;;;;19.08;3.80;;;12.60;76.00;;;;;;5058092;28;20587;-74
2023/11/14 06:34:28;;;;;;;17.17;3.95;;;12.60;76.00;;;;;;5053019;28;20043;-74
2023/11/14 06:36:55;;;;;;;23.00;4.65;;;12.60;76.00;;;;;;5057161;28;20464;-74
2023/11/14 06:39:21;;;;;;;16.00;4.70;;;12.70;76.20;;;;;;5059638;28;20096;-74
2023/11/14 06:41:50;;;;;;;17.40;3.90;;;12.60;76.00;;;;;;5055833;28;20040;-74
2023/11/14 06:44:20;;;;;;;18.10;4.50;;;12.60;76.10;;;;;;5027426;28;20356;-74
2023/11/14 06:46:47;;;;;;;20.50;5.22;;;12.60;76.10;;;;;;5052891;28;20029;-74
2023/11/14 06:49:13;;;;;;;19.05;4.50;;;12.70;76.30;;;;;;5064112;28;20488;-76
2023/11/14 06:51:39;;;;;;;17.13;3.83;;;12.70;76.30;;;;;;5055403;28;20075;-77
2023/11/14 06:54:06;;;;;;;20.27;4.28;;;12.70;76.30;;;;;;5064487;28;20028;-75
2023/11/14 06:56:32;;;;;;;16.48;4.82;;;12.70;76.30;;;;;;5060502;28;20047;-75
2023/11/14 06:58:58;;;;;;;15.32;3.65;;;12.70;76.40;;;;;;5060198;28;20448;-75
2023/11/14 07:01:24;;;;;;;20.75;5.35;;;12.70;76.40;;;;;;5058223;28;20400;-75
2023/11/14 07:03:50;;;;;;;17.75;3.97;;;12.70;76.40;;;;;;5059821;28;20551;-76
2023/11/14 07:06:18;;;;;;;20.95;5.35;;;12.70;76.40;;;;;;5060897;28;20033;-76
2023/11/14 07:08:43;;;;;;;16.67;4.50;;;12.70;76.40;;;;;;5065334;28;20032;-76
2023/11/14 07:11:11;;;;;;;18.88;4.35;;;12.70;76.90;;;;;;5056835;28;20392;-76
2023/11/14 07:13:38;;;;;;;17.23;6.70;;;12.70;76.40;;;;;;5069619;28;20054;-77
2023/11/14 07:16:04;;;;;;;20.20;4.10;;;12.70;76.40;;;;;;5060235;28;20196;-74
2023/11/14 07:18:31;;;;;;;16.92;4.32;;;12.70;76.30;;;;;;5059959;28;20454;-75
2023/11/14 07:20:58;;;;;;;19.08;4.95;;;12.70;76.40;;;;;;5055871;28;20498;-75
2023/11/14 07:23:24;;;;;;;15.75;3.92;;;12.70;76.40;;;;;;5065142;28;20517;-75
2023/11/14 07:25:50;;;;;;;15.85;4.03;;;12.70;76.40;;;;;;5054091;28;20116;-75
2023/11/14 07:28:16;;;;;;;22.08;5.18;;;12.70;76.40;;;;;;5063713;28;20292;-76
2023/11/14 07:30:42;;;;;;;15.45;3.70;;;12.60;76.20;;;;;;5050472;28;20028;-75
2023/11/14 07:33:09;;;;;;;15.65;4.38;;;12.70;76.40;;;;;;5054679;28;20033;-74
2023/11/14 07:35:37;;;;;;;19.55;4.68;;;12.70;76.40;;;;;;5057222;28;20052;-76
2023/11/14 07:38:04;;;;;;;16.08;4.90;;;12.60;76.20;;;;;;5057861;28;20390;-76
2023/11/14 07:40:32;;;;;;;20.95;5.82;;;12.70;76.40;;;;;;5055115;28;20406;-78
2023/11/14 07:43:02;;;;;;;18.45;4.85;;;12.70;76.40;;;;;;5053931;28;20304;-77
2023/11/14 07:45:29;;;;;;;19.15;3.58;;;12.60;76.20;;;;;;5058361;28;20600;-78
2023/11/14 07:47:55;;;;;;;22.52;3.85;;;12.70;76.40;;;;;;5055354;28;20063;-78
2023/11/14 07:50:22;;;;;;;18.45;4.55;;;12.70;76.40;;;;;;5061805;28;20443;-77
2023/11/14 07:52:49;;;;;;;18.08;5.82;;;12.60;76.30;;;;;;5063281;28;20062;-79
2023/11/14 07:55:19;;;;;;;17.40;3.75;;;12.70;76.40;;;;;;5063098;28;20334;-77
2023/11/14 07:57:45;;;;;;;18.98;4.28;;;12.70;76.40;;;;;;5060000;28;20040;-78
2023/11/14 08:00:12;;;;;;;14.02;4.15;;;12.60;76.20;;;;;;5054476;28;20024;-78
2023/11/14 08:02:39;;;;;;;17.42;4.13;;;12.70;76.40;;;;;;5060262;28;20368;-76
2023/11/14 08:05:06;;;;;;;17.83;4.57;;;12.70;76.40;;;;;;5057210;28;20044;-76
2023/11/14 08:07:32;;;;;;;16.25;4.60;;;12.70;76.40;;;;;;5055794;28;20075;-76
2023/11/14 08:09:57;;;;;;;17.50;3.80;;;12.70;76.40;;;;;;5052627;28;20143;-75
2023/11/14 08:12:23;;;;;;;20.08;4.10;;;12.70;76.40;;;;;;5058072;28;20025;-75
2023/11/14 08:14:50;;;;;;;13.60;3.55;;;12.70;76.40;;;;;;5060095;28;20106;-75
2023/11/14 08:17:17;;;;;;;14.07;3.22;;;12.70;76.30;;;;;;5063075;28;20028;-75
2023/11/14 08:19:45;;;;;;;18.42;5.32;;;12.70;76.30;;;;;;5068217;28;20151;-74
2023/11/14 08:22:11;;;;;;;14.40;4.07;;;12.70;76.30;;;;;;5064644;28;20534;-74
2023/11/14 08:24:38;;;;;;;11.48;3.67;;;12.70;76.30;;;;;;5052162;28;20079;-74
2023/11/14 08:27:07;;;;;;;17.80;3.88;;;12.70;76.30;;;;;;5067109;28;20083;-76
2023/11/14 08:29:38;;;;;;;11.45;3.47;;;12.70;76.30;;;;;;5066203;28;20047;-74
2023/11/14 08:32:05;;;;;;;16.25;3.70;;;12.80;76.50;;;;;;5073916;28;20024;-74
2023/11/14 08:34:31;;;;;;;12.82;3.42;;;12.70;76.30;;;;;;5063589;28;20043;-76
2023/11/14 08:36:57;;;;;;;13.00;3.78;;;12.70;76.30;;;;;;5063111;28;20391;-77
2023/11/14 08:39:23;;;;;;;10.82;3.55;;;12.70;76.30;;;;;;5069600;28;20044;-75
2023/11/14 08:41:49;;;;;;;11.73;3.10;;;12.70;76.80;;;;;;5057814;28;20108;-76
2023/11/14 08:44:15;;;;;;;14.98;3.35;;;12.70;76.40;;;;;;5060390;28;20036;-76
2023/11/14 08:46:41;;;;;;;17.00;5.28;;;12.70;76.30;;;;;;5066231;28;20118;-76
2023/11/14 08:49:07;;;;;;;14.68;3.72;;;12.70;76.30;;;;;;5082268;28;20028;-76
2023/11/14 08:51:38;;;;;;;14.20;3.50;;;12.70;76.40;;;;;;5060677;28;20396;-76
2023/11/14 08:54:04;;;;;;;8.77;3.17;;;12.80;76.50;;;;;;5060147;28;20029;-76
2023/11/14 08:56:30;;;;;;;13.93;3.25;;;12.80;76.50;;;;;;5059396;28;20053;-76
2023/11/14 08:58:57;;;;;;;11.05;3.47;;;12.70;76.30;;;;;;5065884;28;20041;-76
2023/11/14 09:01:24;;;;;;;14.10;2.97;;;12.70;76.30;;;;;;5060012;28;20033;-76
2023/11/14 09:03:50;;;;;;;12.85;2.60;;;12.80;76.50;;;;;;5060622;28;20032;-76
2023/11/14 09:06:16;;;;;;;9.75;2.80;;;12.80;76.60;;;;;;5058395;28;20038;-75
2023/11/14 09:08:42;;;;;;;11.85;3.05;;;12.80;76.50;;;;;;5062201;28;20040;-75
2023/11/14 09:11:09;;;;;;;12.50;3.65;;;12.80;76.60;;;;;;5055788;28;20075;-75
2023/11/14 09:13:38;;;;;;;9.23;2.50;;;12.70;76.40;;;;;;5065803;28;20032;-74
2023/11/14 09:16:09;;;;;;;12.82;3.47;;;12.70;76.40;;;;;;5060938;28;20119;-75
2023/11/14 09:18:38;;;;;;;7.35;1.95;;;12.70;76.40;;;;;;5069680;28;20024;-74
2023/11/14 09:21:04;;;;;;;11.57;2.38;;;12.80;76.60;;;;;;5063912;28;20172;-75
2023/11/14 09:23:32;;;;;;;10.38;1.95;;;12.70;76.40;;;;;;5065523;28;20044;-74
2023/11/14 09:25:59;;;;;;;7.13;2.67;;;12.70;76.40;;;;;;5062363;28;20439;-74
2023/11/14 09:28:25;;;;;;;8.73;2.10;;;12.70;76.50;;;;;;5059256;28;20051;-74
2023/11/14 09:30:52;;;;;;;12.07;2.13;;;12.80;76.60;;;;;;5054043;28;20511;-76
2023/11/14 09:33:17;;;;;;;13.73;3.38;;;12.70;76.50;;;;;;5062284;28;20031;-76
2023/11/14 09:35:43;;;;;;;11.57;2.17;;;12.70;76.40;;;;;;5058515;28;20304;-76
2023/11/14 09:38:10;;;;;;;13.82;3.35;;;12.70;76.50;;;;;;5059698;28;20037;-76
2023/11/14 09:40:36;;;;;;;13.15;2.33;;;12.70;76.40;;;;;;5057537;28;20566;-77
2023/11/14 09:43:04;;;;;;;8.07;2.22;;;12.70;76.40;;;;;;5055622;28;20123;-76
2023/11/14 09:45:31;;;;;;;6.97;2.08;;;12.70;76.50;;;;;;5060095;28;20163;-73
2023/11/14 09:47:57;;;;;;;7.72;1.77;;;12.70;76.40;;;;;;5060655;28;20036;-73
2023/11/14 09:50:23;;;;;;;8.65;1.90;;;12.80;76.60;;;;;;5063415;28;20360;-77
2023/11/14 09:52:49;;;;;;;5.68;2.10;;;12.80;76.60;;;;;;5063526;28;20062;-76
2023/11/14 09:55:16;;;;;;;7.20;1.60;;;12.80;76.60;;;;;;5057597;28;20055;-73
2023/11/14 09:57:45;;;;;;;5.28;1.52;;;12.70;76.40;;;;;;5059588;28;20040;-77
2023/11/14 10:00:12;;;;;;;7.38;1.98;;;12.80;76.60;;;;;;5053008;28;20037;-76
2023/11/14 10:02:42;;;;;;;4.82;2.13;;;12.70;76.40;;;;;;5090495;27;20033;-74
2023/11/14 10:05:09;;;;;;;6.63;1.92;;;12.70;76.40;;;;;;5058801;28;20165;-76
2023/11/14 10:07:36;;;;;;;6.30;1.88;;;12.80;76.60;;;;;;5055057;28;20032;-76
2023/11/14 10:10:03;;;;;;;6.90;1.65;;;12.80;76.60;;;;;;5055115;28;20531;-76
2023/11/14 10:12:37;;;;;;;8.07;2.15;;;12.80;76.60;;;;;;5058200;28;20036;-76
2023/11/14 10:15:10;;;;;;;5.63;1.55;;;12.80;76.60;;;;;;5053981;28;20064;-76
2023/11/14 10:17:45;;;;;;;7.38;1.70;;;12.80;76.60;;;;;;5057711;28;20063;-76
2023/11/14 10:20:13;;;;;;;7.40;1.42;;;12.80;76.60;;;;;;5075371;28;20028;-76
2023/11/14 10:22:53;;;;;;;7.47;1.20;;;12.80;76.50;;;;;;5059432;28;20932;-75
2023/11/14 10:25:27;;;;;;;8.20;2.08;;;12.80;76.50;;;;;;5058075;28;20348;-75
2023/11/14 10:27:59;;;;;;;7.28;2.22;;;12.80;76.50;;;;;;5084353;27;20040;-76
2023/11/14 10:30:48;;;;;;;6.60;2.20;;;12.80;76.50;;;;;;5058491;28;20033;-76
2023/11/14 10:33:15;;;;;;;5.28;1.48;;;12.80;76.50;;;;;;5053716;28;20506;-75
2023/11/14 10:35:42;;;;;;;6.50;1.27;;;12.80;76.40;;;;;;5062648;28;20086;-74
2023/11/14 10:38:19;;;;;;;6.63;1.67;;;12.90;76.50;;;;;;5057168;28;20376;-77
2023/11/14 10:40:53;;;;;;;7.82;2.00;;;12.80;76.40;;;;;;5054317;28;20132;-77
2023/11/14 10:43:26;;;;;;;5.70;1.77;;;12.90;76.50;;;;;;5045230;28;20033;-75
2023/11/14 10:45:53;;;;;;;5.18;2.05;;;12.90;76.50;;;;;;5060685;28;20063;-76
2023/11/14 10:48:23;;;;;;;5.53;1.58;;;12.90;76.50;;;;;;5057465;28;20035;-76
2023/11/14 10:50:51;;;;;;;5.90;1.50;;;13.00;76.60;;;;;;5056205;28;20040;-76
2023/11/14 10:53:17;;;;;;;8.40;1.73;;;13.00;76.60;;;;;;5059004;28;20550;-75
2023/11/14 10:55:45;;;;;;;8.32;2.13;;;13.00;76.50;;;;;;5063464;28;20678;-75
2023/11/14 10:58:13;;;;;;;7.43;1.55;;;13.00;76.40;;;;;;5065141;28;20828;-74
2023/11/14 11:00:44;;;;;;;4.82;1.42;;;13.00;76.40;;;;;;5054134;28;20491;-75
2023/11/14 11:03:13;;;;;;;9.25;1.95;;;13.00;76.40;;;;;;5060043;28;20024;-76
2023/11/14 11:05:39;;;;;;;9.13;2.30;;;13.00;76.40;;;;;;5062772;28;20043;-74
2023/11/14 11:08:07;;;;;;;5.78;1.25;;;13.00;76.40;;;;;;5054787;28;20029;-75
2023/11/14 11:10:37;;;;;;;7.90;2.05;;;13.00;76.40;;;;;;5056030;28;20020;-75
2023/11/14 11:13:16;;;;;;;10.10;1.77;;;13.00;76.40;;;;;;5076076;28;20055;-76
2023/11/14 11:15:43;;;;;;;7.43;1.80;;;13.00;76.50;;;;;;5053548;28;20769;-77
2023/11/14 11:18:09;;;;;;;9.68;2.00;;;13.00;76.40;;;;;;5058048;28;20173;-76
2023/11/14 11:20:39;;;;;;;10.13;1.73;;;13.00;76.50;;;;;;5070883;28;20225;-77
2023/11/14 11:23:13;;;;;;;8.35;1.58;;;13.00;76.50;;;;;;5059458;28;20059;-75
2023/11/14 11:25:43;;;;;;;6.13;1.75;;;13.00;76.50;;;;;;5055977;28;20048;-76
2023/11/14 11:28:21;;;;;;;7.93;1.92;;;13.00;76.50;;;;;;5060008;28;20025;-75
2023/11/14 11:31:06;;;;;;;9.60;2.35;;;13.00;76.50;;;;;;5053003;28;20537;-75
2023/11/14 11:33:40;;;;;;;6.90;1.67;;;13.00;76.40;;;;;;5057614;28;20515;-74
2023/11/14 11:36:25;;;;;;;4.15;1.17;;;13.00;76.40;;;;;;5061284;28;20024;-75
2023/11/14 11:39:03;;;;;;;3.47;1.20;;;13.00;76.20;;;;;;5059025;28;20404;-77
2023/11/14 11:41:34;;;;;;;5.63;1.00;;;13.00;76.20;;;;;;5055954;28;20048;-77
2023/11/14 11:44:10;;;;;;;6.78;1.52;;;13.00;76.20;;;;;;5057292;28;20126;-75
2023/11/14 11:46:39;;;;;;;3.10;1.15;;;13.10;76.40;;;;;;5058662;28;20044;-76
2023/11/14 11:49:16;;;;;;;7.07;1.38;;;13.10;76.30;;;;;;5058401;28;20028;-75
2023/11/14 11:51:46;;;;;;;4.40;1.25;;;13.00;76.10;;;;;;5060466;28;20044;-77
2023/11/14 11:54:28;;;;;;;4.90;1.10;;;13.10;76.30;;;;;;5055053;28;20531;-78
2023/11/14 11:57:06;;;;;;;7.15;1.00;;;13.10;76.20;;;;;;5060008;28;20459;-75
2023/11/14 11:59:46;;;;;;;2.35;1.00;;;13.10;76.10;;;;;;5059099;28;20032;-76
2023/11/14 12:02:17;;;;;;;4.20;1.27;;;13.10;76.10;;;;;;5061203;28;20032;-75
2023/11/14 12:04:44;;;;;;;4.65;1.10;;;13.10;76.10;;;;;;5042475;28;20045;-75
2023/11/14 12:07:11;;;;;;;4.70;0.98;;;13.10;76.60;;;;;;5064928;28;20084;-74
2023/11/14 12:09:39;;;;;;;4.15;1.27;;;13.20;76.20;;;;;;5061151;28;20400;-74
2023/11/14 12:12:05;;;;;;;4.05;1.30;;;13.30;76.30;;;;;;5054669;28;20028;-74
2023/11/14 12:14:31;;;;;;;2.15;1.00;;;13.40;76.40;;;;;;5060139;28;20044;-75
2023/11/14 12:17:03;;;;;;;2.90;1.10;;;13.50;76.40;;;;;;5056898;28;20039;-74
2023/11/14 12:19:29;;;;;;;3.75;1.00;;;13.60;76.30;;;;;;5061144;28;20032;-75
2023/11/14 12:21:57;;;;;;;5.13;1.20;;;13.80;76.30;;;;;;5058424;28;20094;-75
2023/11/14 12:24:23;;;;;;;3.25;1.45;;;13.80;76.10;;;;;;5062992;28;20433;-76
2023/11/14 12:26:53;;;;;;;2.25;1.00;;;13.90;76.10;;;;;;5060130;28;20081;-75
2023/11/14 12:29:19;;;;;;;5.60;1.10;;;14.00;76.00;;;;;;5058121;28;20132;-76
2023/11/14 12:31:52;;;;;;;1.77;0.97;;;14.10;76.00;;;;;;5066332;28;20042;-76
2023/11/14 12:34:29;;;;;;;2.70;1.23;;;14.10;75.90;;;;;;5058980;28;20827;-75
2023/11/14 12:37:10;;;;;;;4.05;1.00;;;14.20;75.90;;;;;;5038195;28;20108;-75
2023/11/14 12:39:39;;;;;;;2.72;1.00;;;14.20;75.90;;;;;;5058270;28;20060;-75